createdAt,value
2023-07-24T00:00:42.544Z,98262.97
2023-07-24T00:03:10.442Z,98255.19
2023-07-24T00:05:39.480Z,98251.44
2023-07-24T00:08:08.054Z,98249.31
2023-07-24T00:10:36.312Z,98244.09
2023-07-24T00:13:04.402Z,98233.84
2023-07-24T00:15:32.300Z,98248.47
2023-07-24T00:18:03.632Z,98239.34
2023-07-24T00:20:37.599Z,98245.78
2023-07-24T00:23:06.702Z,98239.69
2023-07-24T00:25:34.352Z,98245.19
2023-07-24T00:28:02.368Z,98247.16
2023-07-24T00:30:30.068Z,98222.69
2023-07-24T00:32:57.674Z,98226.75
2023-07-24T00:35:25.593Z,98221.53
2023-07-24T00:37:53.300Z,98220.69
2023-07-24T00:40:22.630Z,98222.53
2023-07-24T00:42:50.601Z,98228.19
2023-07-24T00:45:18.457Z,98223.75
2023-07-24T00:47:46.421Z,98227.81
2023-07-24T00:50:14.676Z,98223.53
2023-07-24T00:52:42.618Z,98217.34
2023-07-24T00:55:11.394Z,98219.56
2023-07-24T00:57:40.476Z,98221.25
2023-07-24T01:00:09.313Z,98222.84
2023-07-24T01:02:37.232Z,98219.84
2023-07-24T01:05:05.798Z,98205.09
2023-07-24T01:07:36.383Z,98200.59
2023-07-24T01:10:04.153Z,98195.63
2023-07-24T01:12:35.007Z,98188.19
2023-07-24T01:15:09.767Z,98184.81
2023-07-24T01:17:41.729Z,98190.47
2023-07-24T01:20:11.088Z,98185.72
2023-07-24T01:22:41.954Z,98188.81
2023-07-24T01:25:13.483Z,98193.47
2023-07-24T01:27:46.144Z,98195.44
2023-07-24T01:30:15.314Z,98195.00
2023-07-24T01:32:42.982Z,98190.31
2023-07-24T01:35:10.756Z,98186.88
2023-07-24T01:37:40.484Z,98173.88
2023-07-24T01:40:09.320Z,98166.69
2023-07-24T01:42:37.166Z,98159.41
2023-07-24T01:45:07.397Z,98148.69
2023-07-24T01:47:35.265Z,98142.66
2023-07-24T01:50:03.228Z,98128.00
2023-07-24T01:52:30.920Z,98129.28
2023-07-24T01:54:58.585Z,98114.38
2023-07-24T01:57:26.239Z,98110.56
2023-07-24T01:59:53.930Z,98109.03
2023-07-24T02:02:22.992Z,98116.75
2023-07-24T02:04:50.642Z,98122.94
2023-07-24T02:07:18.292Z,98114.09
2023-07-24T02:09:47.168Z,98120.41
2023-07-24T02:12:17.731Z,98125.66
2023-07-24T02:14:45.435Z,98130.59
2023-07-24T02:17:13.101Z,98126.94
2023-07-24T02:19:42.076Z,98131.00
2023-07-24T02:22:09.812Z,98122.34
2023-07-24T02:24:37.511Z,98121.66
2023-07-24T02:27:06.589Z,98139.72
2023-07-24T02:29:34.313Z,98134.50
2023-07-24T02:32:02.550Z,98137.09
2023-07-24T02:34:30.280Z,98147.25
2023-07-24T02:36:59.298Z,98146.84
2023-07-24T02:39:27.089Z,98147.09
2023-07-24T02:41:54.773Z,98151.69
2023-07-24T02:44:22.381Z,98150.22
2023-07-24T02:46:50.284Z,98159.34
2023-07-24T02:49:17.940Z,98150.88
2023-07-24T02:51:45.669Z,98148.09
2023-07-24T02:54:14.663Z,98134.03
2023-07-24T02:56:42.321Z,98118.34
2023-07-24T02:59:09.975Z,98102.78
2023-07-24T03:01:38.410Z,98111.69
2023-07-24T03:04:06.673Z,98129.13
2023-07-24T03:06:34.373Z,98130.84
2023-07-24T03:09:02.085Z,98117.91
2023-07-24T03:11:31.096Z,98105.84
2023-07-24T03:13:58.740Z,98104.72
2023-07-24T03:16:26.545Z,98098.41
2023-07-24T03:18:54.286Z,98083.41
2023-07-24T03:21:22.718Z,98074.56
2023-07-24T03:23:50.352Z,98069.50
2023-07-24T03:26:18.027Z,98049.88
2023-07-24T03:28:47.079Z,98071.63
2023-07-24T03:31:14.933Z,98066.84
2023-07-24T03:33:42.739Z,98053.09
2023-07-24T03:36:10.372Z,98027.91
2023-07-24T03:38:37.993Z,98003.03
2023-07-24T03:41:05.700Z,98001.75
2023-07-24T03:43:33.364Z,98004.88
2023-07-24T03:46:02.328Z,98026.09
2023-07-24T03:48:30.094Z,98035.22
2023-07-24T03:51:00.370Z,98037.16
2023-07-24T03:53:28.130Z,98037.16
2023-07-24T03:55:56.114Z,98043.78
2023-07-24T03:58:23.794Z,98045.75
2023-07-24T04:00:51.413Z,98041.13
2023-07-24T04:03:20.490Z,98035.94
2023-07-24T04:05:48.216Z,98046.75
2023-07-24T04:08:15.853Z,98034.59
2023-07-24T04:10:43.490Z,98042.06
2023-07-24T04:13:11.163Z,98046.97
2023-07-24T04:15:39.341Z,98027.03
2023-07-24T04:18:09.207Z,98044.41
2023-07-24T04:20:38.188Z,98063.25
2023-07-24T04:23:05.940Z,98056.50
2023-07-24T04:25:33.644Z,98065.81
2023-07-24T04:28:01.272Z,98052.00
2023-07-24T04:30:28.909Z,98052.31
2023-07-24T04:32:56.817Z,98063.50
2023-07-24T04:35:24.542Z,98064.63
2023-07-24T04:37:53.557Z,98072.00
2023-07-24T04:40:21.163Z,98095.00
2023-07-24T04:42:48.807Z,98088.94
2023-07-24T04:45:16.452Z,98064.78
2023-07-24T04:47:44.627Z,98061.00
2023-07-24T04:50:12.304Z,98062.09
2023-07-24T04:52:40.010Z,98066.47
2023-07-24T04:55:09.605Z,98073.50
2023-07-24T04:57:37.222Z,98079.69
2023-07-24T05:00:06.366Z,98070.81
2023-07-24T05:02:34.177Z,98089.22
2023-07-24T05:05:01.916Z,98093.28
2023-07-24T05:07:29.550Z,98091.00
2023-07-24T05:09:57.274Z,98090.47
2023-07-24T05:12:26.307Z,98076.84
2023-07-24T05:14:54.002Z,98078.09
2023-07-24T05:17:21.686Z,98058.31
2023-07-24T05:19:49.404Z,98067.00
2023-07-24T05:22:17.118Z,98064.03
2023-07-24T05:24:44.988Z,98078.53
2023-07-24T05:27:13.511Z,98072.59
2023-07-24T05:29:42.609Z,98069.81
2023-07-24T05:32:13.096Z,98074.88
2023-07-24T05:34:40.893Z,98066.25
2023-07-24T05:37:08.480Z,98050.97
2023-07-24T05:39:36.065Z,98064.72
2023-07-24T05:42:04.492Z,98062.75
2023-07-24T05:44:32.145Z,98064.59
2023-07-24T05:47:01.161Z,98058.66
2023-07-24T05:49:28.805Z,98046.31
2023-07-24T05:51:57.636Z,98048.31
2023-07-24T05:54:25.351Z,98060.31
2023-07-24T05:56:54.500Z,98072.69
2023-07-24T05:59:22.344Z,98077.41
2023-07-24T06:01:49.963Z,98068.47
2023-07-24T06:04:19.078Z,98067.03
2023-07-24T06:06:46.821Z,98069.56
2023-07-24T06:09:14.700Z,98076.53
2023-07-24T06:11:42.406Z,98068.91
2023-07-24T06:14:10.029Z,98058.59
2023-07-24T06:16:38.287Z,98051.25
2023-07-24T06:19:06.256Z,98049.66
2023-07-24T06:21:35.599Z,98045.59
2023-07-24T06:24:03.926Z,98044.03
2023-07-24T06:26:32.497Z,98049.16
2023-07-24T06:29:00.884Z,98044.22
2023-07-24T06:31:28.797Z,98052.00
2023-07-24T06:33:57.117Z,98041.59
2023-07-24T06:36:24.867Z,98058.44
2023-07-24T06:38:53.950Z,98049.34
2023-07-24T06:41:23.970Z,98059.44
2023-07-24T06:43:54.321Z,98052.13
2023-07-24T06:46:22.021Z,98053.22
2023-07-24T06:48:50.002Z,98058.63
2023-07-24T06:51:17.866Z,98067.72
2023-07-24T06:53:45.510Z,98065.41
2023-07-24T06:56:14.896Z,98058.88
2023-07-24T06:58:42.737Z,98075.53
2023-07-24T07:01:10.604Z,98061.25
2023-07-24T07:03:38.869Z,98066.97
2023-07-24T07:06:07.820Z,98078.19
2023-07-24T07:08:36.415Z,98080.50
2023-07-24T07:11:04.438Z,98081.53
2023-07-24T07:13:33.640Z,98078.00
2023-07-24T07:16:01.882Z,98080.84
2023-07-24T07:18:29.661Z,98085.72
2023-07-24T07:20:57.520Z,98068.03
2023-07-24T07:23:25.154Z,98057.94
2023-07-24T07:25:53.273Z,98049.91
2023-07-24T07:28:21.028Z,98038.53
2023-07-24T07:30:50.204Z,98037.38
2023-07-24T07:33:17.993Z,98026.88
2023-07-24T07:35:45.826Z,98032.00
2023-07-24T07:38:13.488Z,98039.59
2023-07-24T07:40:41.193Z,98048.16
2023-07-24T07:43:09.765Z,98045.13
2023-07-24T07:45:37.472Z,98043.97
2023-07-24T07:48:07.478Z,98051.38
2023-07-24T07:50:35.111Z,98052.53
2023-07-24T07:53:02.891Z,98038.97
2023-07-24T07:55:30.956Z,98044.34
2023-07-24T07:58:01.058Z,98028.94
2023-07-24T08:00:29.009Z,98034.47
2023-07-24T08:02:56.735Z,98038.00
2023-07-24T08:05:25.790Z,98041.72
2023-07-24T08:07:54.201Z,98033.16
2023-07-24T08:10:22.440Z,98044.38
2023-07-24T08:12:50.301Z,98017.50
2023-07-24T08:15:18.483Z,98013.13
2023-07-24T08:17:46.446Z,97996.47
2023-07-24T08:20:14.327Z,98003.84
2023-07-24T08:22:43.446Z,98013.22
2023-07-24T08:25:11.447Z,98008.34
2023-07-24T08:27:54.525Z,98009.25
2023-07-24T08:30:27.418Z,98008.75
2023-07-24T08:32:55.458Z,98004.16
2023-07-24T08:35:23.576Z,98007.69
2023-07-24T08:37:52.820Z,98009.91
2023-07-24T08:40:20.728Z,98005.28
2023-07-24T08:42:51.442Z,97996.28
2023-07-24T08:45:20.331Z,97985.88
2023-07-24T08:47:48.354Z,97992.56
2023-07-24T08:50:16.713Z,98000.63
2023-07-24T08:52:46.108Z,97993.84
2023-07-24T08:55:15.779Z,97985.69
2023-07-24T08:57:43.643Z,97970.09
2023-07-24T09:00:12.804Z,97977.16
2023-07-24T09:02:40.881Z,97973.78
2023-07-24T09:05:10.116Z,97975.22
2023-07-24T09:07:38.714Z,97970.75
2023-07-24T09:10:10.102Z,97973.97
2023-07-24T09:12:42.362Z,97967.28
2023-07-24T09:15:13.035Z,97966.88
2023-07-24T09:17:50.019Z,97960.34
2023-07-24T09:20:31.410Z,97955.00
2023-07-24T09:25:33.947Z,97928.81
2023-07-24T09:28:03.554Z,97935.41
2023-07-24T09:30:31.633Z,97941.56
2023-07-24T09:32:59.980Z,97940.50
2023-07-24T09:35:29.515Z,97931.75
2023-07-24T09:38:04.734Z,97924.94
2023-07-24T09:40:41.735Z,97921.50
2023-07-24T09:43:34.074Z,97905.56
2023-07-24T09:46:07.085Z,97916.44
2023-07-24T09:51:06.502Z,97921.19
2023-07-24T09:53:36.837Z,97936.38
2023-07-24T09:56:06.378Z,97935.78
2023-07-24T09:58:38.072Z,97944.13
2023-07-24T10:01:07.459Z,97946.00
2023-07-24T10:03:36.894Z,97944.84
2023-07-24T10:06:05.235Z,97951.97
2023-07-24T10:08:33.770Z,97953.66
2023-07-24T10:11:01.491Z,97958.97
2023-07-24T10:13:30.308Z,97964.06
2023-07-24T10:15:59.760Z,97957.63
2023-07-24T10:18:29.632Z,97963.47
2023-07-24T10:21:02.591Z,97959.38
2023-07-24T10:23:30.442Z,97950.38
2023-07-24T10:26:04.781Z,97962.88
2023-07-24T10:28:33.564Z,97951.53
2023-07-24T10:31:03.476Z,97961.34
2023-07-24T10:33:33.541Z,97959.00
2023-07-24T10:36:10.841Z,97959.91
2023-07-24T10:38:40.272Z,97966.63
2023-07-24T10:41:09.843Z,97957.56
2023-07-24T10:43:47.948Z,97955.00
2023-07-24T10:46:20.065Z,97948.88
2023-07-24T10:48:49.505Z,97953.38
2023-07-24T10:51:17.385Z,97947.16
2023-07-24T10:53:48.075Z,97944.25
2023-07-24T10:56:16.586Z,97935.22
2023-07-24T10:58:44.557Z,97930.44
2023-07-24T11:01:12.536Z,97928.31
2023-07-24T11:03:42.957Z,97931.47
2023-07-24T11:06:17.445Z,97934.91
2023-07-24T11:08:53.120Z,97929.06
2023-07-24T11:11:20.942Z,97930.69
2023-07-24T11:13:48.575Z,97926.81
2023-07-24T11:16:16.235Z,97920.38
2023-07-24T11:18:54.637Z,97927.53
2023-07-24T11:21:24.518Z,97914.84
2023-07-24T11:23:53.584Z,97925.50
2023-07-24T11:26:22.583Z,97911.16
2023-07-24T11:28:51.194Z,97914.09
2023-07-24T11:31:21.093Z,97905.31
2023-07-24T11:33:50.958Z,97906.16
2023-07-24T11:36:18.993Z,97913.16
2023-07-24T11:38:46.981Z,97903.88
2023-07-24T11:41:15.036Z,97888.53
2023-07-24T11:43:48.772Z,97888.59
2023-07-24T11:46:25.684Z,97878.47
2023-07-24T11:48:57.625Z,97877.19
2023-07-24T11:51:26.991Z,97887.72
2023-07-24T11:53:54.857Z,97888.88
2023-07-24T11:56:23.695Z,97887.38
2023-07-24T11:58:51.759Z,97885.06
2023-07-24T12:01:19.461Z,97884.28
2023-07-24T12:03:49.081Z,97884.72
2023-07-24T12:06:18.700Z,97864.78
2023-07-24T12:08:46.630Z,97857.50
2023-07-24T12:11:20.547Z,97860.41
2023-07-24T12:13:48.306Z,97863.28
2023-07-24T12:16:16.075Z,97850.13
2023-07-24T12:18:43.784Z,97855.53
2023-07-24T12:21:11.449Z,97851.06
2023-07-24T12:23:40.495Z,97845.78
2023-07-24T12:26:08.383Z,97845.56
2023-07-24T12:28:36.551Z,97840.94
2023-07-24T12:31:05.458Z,97840.03
2023-07-24T12:33:33.884Z,97841.13
2023-07-24T12:36:02.678Z,97834.03
2023-07-24T12:38:37.539Z,97834.41
2023-07-24T12:41:06.507Z,97839.72
2023-07-24T12:43:34.114Z,97834.84
2023-07-24T12:46:02.027Z,97855.47
2023-07-24T12:48:32.574Z,97837.94
2023-07-24T12:51:01.230Z,97839.94
2023-07-24T12:53:32.627Z,97833.41
2023-07-24T12:56:06.055Z,97827.19
2023-07-24T12:58:33.678Z,97820.06
2023-07-24T13:01:01.359Z,97823.75
2023-07-24T13:03:29.206Z,97825.09
2023-07-24T13:05:56.940Z,97833.22
2023-07-24T13:08:24.832Z,97812.38
2023-07-24T13:10:52.898Z,97820.00
2023-07-24T13:13:22.045Z,97807.41
2023-07-24T13:15:50.235Z,97818.56
2023-07-24T13:18:27.882Z,97838.84
2023-07-24T13:20:56.666Z,97841.13
2023-07-24T13:23:24.518Z,97846.78
2023-07-24T13:25:54.381Z,97844.84
2023-07-24T13:28:23.405Z,97844.91
2023-07-24T13:30:51.051Z,97842.16
2023-07-24T13:33:18.860Z,97837.78
2023-07-24T13:35:46.645Z,97819.97
2023-07-24T13:38:15.378Z,97809.94
2023-07-24T13:40:43.099Z,97808.66
2023-07-24T13:43:10.850Z,97801.94
2023-07-24T13:45:40.050Z,97790.91
2023-07-24T13:48:07.877Z,97788.06
2023-07-24T13:50:35.627Z,97786.81
2023-07-24T13:53:03.316Z,97782.22
2023-07-24T13:55:31.105Z,97772.59
2023-07-24T13:57:58.767Z,97775.44
2023-07-24T14:00:26.361Z,97778.50
2023-07-24T14:02:55.456Z,97781.66
2023-07-24T14:05:23.256Z,97765.44
2023-07-24T14:07:50.903Z,97763.06
2023-07-24T14:10:18.720Z,97753.69
2023-07-24T14:12:47.536Z,97754.78
2023-07-24T14:15:15.264Z,97743.94
2023-07-24T14:17:43.003Z,97729.19
2023-07-24T14:20:13.165Z,97735.69
2023-07-24T14:22:40.825Z,97737.09
2023-07-24T14:25:09.292Z,97738.16
2023-07-24T14:27:36.946Z,97741.72
2023-07-24T14:30:05.364Z,97744.00
2023-07-24T14:32:33.154Z,97740.25
2023-07-24T14:35:00.849Z,97728.59
2023-07-24T14:37:29.817Z,97716.53
2023-07-24T14:39:57.429Z,97721.91
2023-07-24T14:42:25.097Z,97713.78
2023-07-24T14:44:52.726Z,97712.53
2023-07-24T14:47:20.381Z,97717.50
2023-07-24T14:49:48.007Z,97725.81
2023-07-24T14:52:15.716Z,97718.22
2023-07-24T14:54:44.690Z,97729.94
2023-07-24T14:57:24.133Z,97745.53
2023-07-24T14:59:52.916Z,97768.19
2023-07-24T15:02:20.842Z,97758.91
2023-07-24T15:04:48.828Z,97764.78
2023-07-24T15:07:16.799Z,97767.13
2023-07-24T15:09:46.045Z,97775.00
2023-07-24T15:12:13.724Z,97764.72
2023-07-24T15:14:41.561Z,97771.56
2023-07-24T15:17:09.226Z,97769.31
2023-07-24T15:19:36.889Z,97769.44
2023-07-24T15:22:04.732Z,97769.91
2023-07-24T15:24:34.085Z,97770.28
2023-07-24T15:27:09.170Z,97770.84
2023-07-24T15:29:37.418Z,97783.75
2023-07-24T15:32:06.576Z,97775.09
2023-07-24T15:34:37.250Z,97770.47
2023-07-24T15:37:06.979Z,97776.50
2023-07-24T15:39:35.643Z,97774.09
2023-07-24T15:42:05.296Z,97771.97
2023-07-24T15:44:36.405Z,97776.03
2023-07-24T15:47:04.359Z,97768.97
2023-07-24T15:49:32.116Z,97772.31
2023-07-24T15:51:59.919Z,97785.84
2023-07-24T15:54:27.702Z,97780.69
2023-07-24T15:56:55.357Z,97771.47
2023-07-24T15:59:24.483Z,97776.78
2023-07-24T16:01:52.452Z,97780.78
2023-07-24T16:04:22.643Z,97777.16
2023-07-24T16:06:50.525Z,97784.97
2023-07-24T16:09:18.641Z,97780.31
2023-07-24T16:11:47.230Z,97778.97
2023-07-24T16:14:15.734Z,97779.13
2023-07-24T16:16:45.064Z,97778.84
2023-07-24T16:19:16.053Z,97785.88
2023-07-24T16:21:45.788Z,97780.31
2023-07-24T16:24:13.888Z,97787.94
2023-07-24T16:26:42.196Z,97778.19
2023-07-24T16:29:11.166Z,97777.53
2023-07-24T16:31:39.926Z,97796.47
2023-07-24T16:34:09.255Z,97795.38
2023-07-24T16:36:37.408Z,97800.66
2023-07-24T16:39:06.798Z,97800.75
2023-07-24T16:41:35.391Z,97803.25
2023-07-24T16:44:03.576Z,97805.09
2023-07-24T16:46:31.771Z,97807.81
2023-07-24T16:48:59.475Z,97809.09
2023-07-24T16:51:28.824Z,97806.22
2023-07-24T16:53:56.770Z,97815.78
2023-07-24T16:56:24.729Z,97819.69
2023-07-24T16:58:52.745Z,97824.16
2023-07-24T17:01:20.989Z,97826.47
2023-07-24T17:03:50.292Z,97831.56
2023-07-24T17:06:18.310Z,97843.28
2023-07-24T17:08:47.918Z,97854.47
2023-07-24T17:11:17.488Z,97857.47
2023-07-24T17:13:45.429Z,97868.41
2023-07-24T17:16:13.589Z,97858.97
2023-07-24T17:18:41.860Z,97867.38
2023-07-24T17:21:09.725Z,97882.25
2023-07-24T17:23:37.590Z,97872.94
2023-07-24T17:26:06.518Z,97882.50
2023-07-24T17:28:34.207Z,97887.03
2023-07-24T17:31:02.009Z,97895.66
2023-07-24T17:33:29.768Z,97904.50
2023-07-24T17:35:57.395Z,97900.50
2023-07-24T17:38:25.207Z,97907.69
2023-07-24T17:40:52.942Z,97906.19
2023-07-24T17:43:22.915Z,97897.94
2023-07-24T17:45:50.685Z,97903.16
2023-07-24T17:48:18.442Z,97896.28
2023-07-24T17:50:46.561Z,97893.84
2023-07-24T17:53:14.260Z,97905.91
2023-07-24T17:55:41.983Z,97895.78
2023-07-24T17:58:09.658Z,97904.25
2023-07-24T18:00:41.568Z,97918.25
2023-07-24T18:03:09.402Z,97918.00
2023-07-24T18:05:37.131Z,97923.56
2023-07-24T18:08:05.159Z,97929.78
2023-07-24T18:10:33.205Z,97925.75
2023-07-24T18:13:00.906Z,97923.06
2023-07-24T18:15:28.609Z,97926.28
2023-07-24T18:17:57.816Z,97924.28
2023-07-24T18:20:25.628Z,97923.94
2023-07-24T18:22:53.984Z,97936.34
2023-07-24T18:25:21.889Z,97939.38
2023-07-24T18:27:49.772Z,97938.88
2023-07-24T18:30:17.542Z,97945.59
2023-07-24T18:32:45.247Z,97940.03
2023-07-24T18:35:14.312Z,97942.88
2023-07-24T18:37:42.014Z,97949.94
2023-07-24T18:40:10.737Z,97957.50
2023-07-24T18:42:38.397Z,97961.19
2023-07-24T18:45:06.930Z,97962.69
2023-07-24T18:47:35.175Z,97954.63
2023-07-24T18:50:02.945Z,97960.00
2023-07-24T18:52:31.937Z,97974.41
2023-07-24T18:55:00.350Z,97966.81
2023-07-24T18:57:28.003Z,97962.47
2023-07-24T18:59:55.633Z,97959.44
2023-07-24T19:02:23.386Z,97963.09
2023-07-24T19:04:51.154Z,97967.41
2023-07-24T19:07:18.836Z,97977.63
2023-07-24T19:09:47.824Z,97972.88
2023-07-24T19:12:17.344Z,97982.56
2023-07-24T19:14:44.947Z,97979.59
2023-07-24T19:17:12.968Z,97983.72
2023-07-24T19:19:40.719Z,97992.88
2023-07-24T19:22:08.606Z,97995.56
2023-07-24T19:24:36.465Z,98003.28
2023-07-24T19:27:06.460Z,98005.47
2023-07-24T19:29:35.559Z,98011.50
2023-07-24T19:32:03.250Z,98018.09
2023-07-24T19:34:30.934Z,98018.59
2023-07-24T19:36:58.596Z,98016.72
2023-07-24T19:39:26.238Z,98024.94
2023-07-24T19:41:53.855Z,98024.19
2023-07-24T19:44:22.824Z,98033.00
2023-07-24T19:46:50.446Z,98036.91
2023-07-24T19:49:18.048Z,98042.53
2023-07-24T19:51:45.750Z,98039.88
2023-07-24T19:54:13.409Z,98045.78
2023-07-24T19:56:41.179Z,98043.47
2023-07-24T19:59:08.820Z,98041.03
2023-07-24T20:01:38.092Z,98039.19
2023-07-24T20:04:06.089Z,98039.25
2023-07-24T20:06:34.577Z,98040.38
2023-07-24T20:09:02.336Z,98037.31
2023-07-24T20:11:30.120Z,98028.38
2023-07-24T20:13:58.038Z,98025.53
2023-07-24T20:16:25.689Z,98035.13
2023-07-24T20:18:54.724Z,98040.13
2023-07-24T20:21:23.155Z,98045.19
2023-07-24T20:23:51.191Z,98038.44
2023-07-24T20:26:19.076Z,98042.81
2023-07-24T20:28:47.053Z,98045.38
2023-07-24T20:31:14.972Z,98044.88
2023-07-24T20:33:42.579Z,98049.78
2023-07-24T20:36:13.705Z,98053.44
2023-07-24T20:38:41.462Z,98059.06
2023-07-24T20:41:09.206Z,98061.91
2023-07-24T20:43:36.867Z,98053.34
2023-07-24T20:46:12.070Z,98051.09
2023-07-24T20:48:40.005Z,98055.59
2023-07-24T20:51:17.464Z,98062.34
2023-07-24T20:53:45.247Z,98054.63
2023-07-24T20:56:13.442Z,98053.63
2023-07-24T20:58:41.285Z,98048.31
2023-07-24T21:01:09.306Z,98048.31
2023-07-24T21:03:37.088Z,98054.19
2023-07-24T21:06:05.100Z,98049.56
2023-07-24T21:08:34.208Z,98058.13
2023-07-24T21:11:01.942Z,98043.81
2023-07-24T21:13:29.660Z,98039.31
2023-07-24T21:15:57.353Z,98051.94
2023-07-24T21:18:25.065Z,98056.28
2023-07-24T21:20:52.824Z,98053.78
2023-07-24T21:23:20.758Z,98061.50
2023-07-24T21:25:55.812Z,98060.09
2023-07-24T21:28:23.612Z,98061.75
2023-07-24T21:30:51.985Z,98056.16
2023-07-24T21:33:19.899Z,98060.78
2023-07-24T21:35:47.661Z,98032.44
2023-07-24T21:38:15.295Z,98064.41
2023-07-24T21:40:46.117Z,98061.06
2023-07-24T21:43:15.092Z,98059.38
2023-07-24T21:45:44.184Z,98057.84
2023-07-24T21:48:13.008Z,98054.19
2023-07-24T21:50:41.531Z,98039.31
2023-07-24T21:53:09.689Z,98036.22
2023-07-24T21:55:40.073Z,98036.09
2023-07-24T21:58:08.171Z,98044.91
2023-07-24T22:00:37.903Z,98039.31
2023-07-24T22:03:05.979Z,98054.63
2023-07-24T22:05:33.723Z,98057.13
2023-07-24T22:08:01.442Z,98056.28
2023-07-24T22:10:29.460Z,98048.28
2023-07-24T22:12:57.415Z,98050.53
2023-07-24T22:15:25.363Z,98050.97
2023-07-24T22:17:54.493Z,98057.84
2023-07-24T22:22:54.185Z,98054.03
2023-07-24T22:25:22.105Z,98057.28
2023-07-24T22:27:50.519Z,98050.69
2023-07-24T22:30:18.350Z,98057.84
2023-07-24T22:32:46.743Z,98056.44
2023-07-24T22:35:16.231Z,98054.47
2023-07-24T22:37:44.080Z,98043.53
2023-07-24T22:40:13.019Z,98044.78
2023-07-24T22:42:40.690Z,98040.44
2023-07-24T22:45:08.963Z,98047.03
2023-07-24T22:47:36.790Z,98050.28
2023-07-24T22:50:05.696Z,98041.16
2023-07-24T22:52:35.210Z,98045.78
2023-07-24T22:55:03.346Z,98046.03
2023-07-24T22:57:31.329Z,98048.28
2023-07-24T22:59:59.361Z,98045.06
2023-07-24T23:02:27.860Z,98044.78
2023-07-24T23:04:55.641Z,98043.09
2023-07-24T23:07:22.345Z,98038.88
2023-07-24T23:09:51.335Z,98038.47
2023-07-24T23:12:19.075Z,98033.28
2023-07-24T23:14:46.857Z,98031.31
2023-07-24T23:17:14.516Z,98025.69
2023-07-24T23:19:42.313Z,98029.91
2023-07-24T23:22:10.065Z,98037.47
2023-07-24T23:24:37.814Z,98040.97
2023-07-24T23:27:07.295Z,98025.97
2023-07-24T23:29:35.002Z,98035.06
2023-07-24T23:32:02.661Z,98021.47
2023-07-24T23:34:30.694Z,98023.84
2023-07-24T23:36:58.374Z,98033.38
2023-07-24T23:39:26.029Z,98022.44
2023-07-24T23:41:53.998Z,98019.66
2023-07-24T23:44:22.979Z,98036.88
2023-07-24T23:46:50.634Z,98029.69
2023-07-24T23:49:18.318Z,98030.25
2023-07-24T23:51:45.999Z,98030.53
2023-07-24T23:54:13.726Z,98029.13
2023-07-24T23:56:41.437Z,98029.84
2023-07-24T23:59:09.206Z,98027.31
